createdAt,value
2019-01-10T00:00:06.080Z,933.89
2019-01-10T00:01:06.599Z,933.93
2019-01-10T00:02:07.733Z,933.87
2019-01-10T00:03:08.144Z,933.89
2019-01-10T00:04:09.272Z,933.85
2019-01-10T00:05:09.746Z,933.87
2019-01-10T00:06:10.160Z,933.91
2019-01-10T00:07:11.291Z,933.93
2019-01-10T00:08:11.697Z,933.93
2019-01-10T00:09:12.105Z,933.96
2019-01-10T00:10:14.601Z,933.96
2019-01-10T00:11:15.114Z,933.96
2019-01-10T00:12:16.088Z,933.96
2019-01-10T00:13:16.775Z,933.99
2019-01-10T00:14:17.466Z,933.98
2019-01-10T00:15:18.555Z,934.03
2019-01-10T00:16:19.288Z,934.01
2019-01-10T00:17:20.355Z,934
2019-01-10T00:18:21.488Z,934
2019-01-10T00:19:22.620Z,934.01
2019-01-10T00:20:23.304Z,934.03
2019-01-10T00:21:23.712Z,934.01
2019-01-10T00:22:24.846Z,933.98
2019-01-10T00:23:25.346Z,934.04
2019-01-10T00:24:25.843Z,934.03
2019-01-10T00:25:26.098Z,934.04
2019-01-10T00:26:26.505Z,934.03
2019-01-10T00:27:27.639Z,934.03
2019-01-10T00:28:28.769Z,934.01
2019-01-10T00:29:29.732Z,934.01
2019-01-10T00:30:30.179Z,934.02
2019-01-10T00:31:30.864Z,934.01
2019-01-10T00:32:31.275Z,934.03
2019-01-10T00:33:32.238Z,934.03
2019-01-10T00:34:32.650Z,934.02
2019-01-10T00:35:33.012Z,934.02
2019-01-10T00:36:34.146Z,934.06
2019-01-10T00:37:34.553Z,934
2019-01-10T00:38:35.038Z,934.04
2019-01-10T00:39:35.724Z,934.01
2019-01-10T00:40:36.408Z,934.03
2019-01-10T00:41:37.384Z,934.04
2019-01-10T00:42:38.069Z,934.05
2019-01-10T00:42:50.131Z,934.05
2019-01-10T00:43:50.790Z,934.05
2019-01-10T00:44:51.938Z,934.08
2019-01-10T00:45:53.076Z,934.09
2019-01-10T00:46:54.208Z,934.09
2019-01-10T00:47:54.895Z,934.09
2019-01-10T00:48:55.401Z,934.15
2019-01-10T00:49:55.821Z,934.1
2019-01-10T00:50:56.230Z,934.13
2019-01-10T00:51:56.642Z,934.17
2019-01-10T00:52:57.328Z,934.14
2019-01-10T00:53:58.717Z,934.15
2019-01-10T00:54:59.682Z,934.15
2019-01-10T00:56:00.772Z,934.17
2019-01-10T00:57:01.792Z,934.2
2019-01-10T00:58:02.759Z,934.2
2019-01-10T00:59:03.446Z,934.19
2019-01-10T01:00:03.689Z,934.2
2019-01-10T01:01:03.929Z,934.23
2019-01-10T01:02:05.174Z,934.26
2019-01-10T01:03:06.142Z,934.27
2019-01-10T01:04:06.686Z,934.33
2019-01-10T01:05:07.097Z,934.31
2019-01-10T01:06:07.507Z,934.31
2019-01-10T01:07:07.918Z,934.33
2019-01-10T01:08:08.327Z,934.32
2019-01-10T01:09:09.459Z,934.3
2019-01-10T01:10:10.146Z,934.37
2019-01-10T01:11:10.835Z,934.31
2019-01-10T01:12:11.600Z,934.37
2019-01-10T01:13:12.009Z,934.31
2019-01-10T01:14:13.398Z,934.34
2019-01-10T01:15:13.644Z,934.37
2019-01-10T01:16:14.330Z,934.38
2019-01-10T01:17:16.525Z,934.41
2019-01-10T01:18:17.680Z,934.42
2019-01-10T01:19:18.087Z,934.42
2019-01-10T01:20:18.498Z,934.45
2019-01-10T01:21:18.903Z,934.44
2019-01-10T01:22:19.412Z,934.48
2019-01-10T01:23:19.823Z,934.49
2019-01-10T01:24:20.652Z,934.54
2019-01-10T01:25:21.339Z,934.53
2019-01-10T01:26:21.584Z,934.55
2019-01-10T01:27:22.277Z,934.55
2019-01-10T01:28:23.240Z,934.58
2019-01-10T01:29:23.663Z,934.54
2019-01-10T01:30:24.478Z,934.54
2019-01-10T01:31:25.544Z,934.61
2019-01-10T01:32:26.233Z,934.61
2019-01-10T01:33:26.923Z,934.61
2019-01-10T01:34:27.586Z,934.66
2019-01-10T01:35:28.275Z,934.61
2019-01-10T01:36:29.413Z,934.65
2019-01-10T01:37:30.546Z,934.64
2019-01-10T01:38:31.671Z,934.64
2019-01-10T01:39:32.806Z,934.69
2019-01-10T01:40:33.932Z,934.67
2019-01-10T01:41:34.337Z,934.73
2019-01-10T01:42:35.308Z,934.7
2019-01-10T01:43:35.717Z,934.76
2019-01-10T01:44:36.535Z,934.74
2019-01-10T01:45:36.942Z,934.71
2019-01-10T01:46:37.351Z,934.73
2019-01-10T01:47:38.318Z,934.71
2019-01-10T01:48:39.006Z,934.75
2019-01-10T01:49:39.698Z,934.71
2019-01-10T01:50:40.386Z,934.72
2019-01-10T01:51:40.800Z,934.77
2019-01-10T01:52:41.774Z,934.78
2019-01-10T01:53:42.182Z,934.76
2019-01-10T01:54:42.444Z,934.78
2019-01-10T01:55:43.131Z,934.79
2019-01-10T01:56:44.265Z,934.82
2019-01-10T01:57:44.949Z,934.85
2019-01-10T01:58:45.925Z,934.81
2019-01-10T01:59:46.615Z,934.85
2019-01-10T02:00:47.301Z,934.85
2019-01-10T02:01:47.716Z,934.87
2019-01-10T02:02:48.126Z,934.92
2019-01-10T02:03:48.815Z,934.93
2019-01-10T02:04:49.924Z,934.91
2019-01-10T02:05:50.330Z,934.94
2019-01-10T02:06:50.739Z,934.93
2019-01-10T02:07:51.150Z,934.97
2019-01-10T02:08:51.878Z,934.96
2019-01-10T02:09:53.121Z,934.96
2019-01-10T02:10:54.087Z,935.01
2019-01-10T02:11:55.053Z,935
2019-01-10T02:12:55.462Z,934.96
2019-01-10T02:13:55.869Z,934.99
2019-01-10T02:14:56.642Z,935
2019-01-10T02:15:57.326Z,935
2019-01-10T02:16:58.457Z,935
2019-01-10T02:17:59.696Z,935.02
2019-01-10T02:19:01.104Z,934.97
2019-01-10T02:20:01.512Z,935
2019-01-10T02:21:01.759Z,934.97
2019-01-10T02:22:03.000Z,935.04
2019-01-10T02:23:03.691Z,935.03
2019-01-10T02:24:04.382Z,935.01
2019-01-10T02:25:05.065Z,935.03
2019-01-10T02:26:05.757Z,935.01
2019-01-10T02:27:06.241Z,935.02
2019-01-10T02:28:06.933Z,935.03
2019-01-10T02:29:07.620Z,935.03
2019-01-10T02:30:08.305Z,935.02
2019-01-10T02:31:09.378Z,935.03
2019-01-10T02:32:09.802Z,935.03
2019-01-10T02:33:10.488Z,935.03
2019-01-10T02:34:11.471Z,935.02
2019-01-10T02:35:12.429Z,935.01
2019-01-10T02:36:13.122Z,934.99
2019-01-10T02:37:13.448Z,935
2019-01-10T02:38:14.701Z,935
2019-01-10T02:39:15.831Z,935
2019-01-10T02:40:16.245Z,934.98
2019-01-10T02:41:17.224Z,935.01
2019-01-10T02:42:18.490Z,934.99
2019-01-10T02:43:26.936Z,935
2019-01-10T02:43:31.087Z,934.99
2019-01-10T02:44:31.747Z,934.96
2019-01-10T02:45:31.969Z,934.97
2019-01-10T02:46:32.378Z,934.94
2019-01-10T02:47:33.550Z,934.94
2019-01-10T02:48:34.073Z,934.96
2019-01-10T02:49:35.321Z,934.95
2019-01-10T02:50:36.302Z,934.94
2019-01-10T02:51:36.558Z,934.96
2019-01-10T02:52:37.262Z,935
2019-01-10T02:53:38.039Z,934.98
2019-01-10T02:54:38.876Z,934.96
2019-01-10T02:55:39.846Z,934.97
2019-01-10T02:56:40.094Z,934.98
2019-01-10T02:57:40.552Z,934.98
2019-01-10T02:58:41.006Z,935
2019-01-10T02:59:41.983Z,935.04
2019-01-10T03:00:42.544Z,935.03
2019-01-10T03:01:43.314Z,935.01
2019-01-10T03:02:44.022Z,934.99
2019-01-10T03:03:45.286Z,934.98
2019-01-10T03:04:46.400Z,934.96
2019-01-10T03:05:47.368Z,935.01
2019-01-10T03:06:47.891Z,934.97
2019-01-10T03:07:48.883Z,935
2019-01-10T03:08:49.436Z,935
2019-01-10T03:09:50.127Z,934.96
2019-01-10T03:10:51.094Z,935
2019-01-10T03:11:51.783Z,935.03
2019-01-10T03:12:52.769Z,934.98
2019-01-10T03:13:53.287Z,934.99
2019-01-10T03:14:54.408Z,935.01
2019-01-10T03:15:55.377Z,934.98
2019-01-10T03:16:56.506Z,934.95
2019-01-10T03:17:57.321Z,934.92
2019-01-10T03:18:58.012Z,934.92
2019-01-10T03:19:58.705Z,934.95
2019-01-10T03:20:59.444Z,934.93
2019-01-10T03:21:59.702Z,934.94
2019-01-10T03:23:00.390Z,934.93
2019-01-10T03:24:00.919Z,934.95
2019-01-10T03:25:01.868Z,934.94
2019-01-10T03:26:02.144Z,934.98
2019-01-10T03:27:02.849Z,934.94
2019-01-10T03:28:03.092Z,934.91
2019-01-10T03:29:03.338Z,934.9
2019-01-10T03:30:03.862Z,934.94
2019-01-10T03:31:04.845Z,934.93
2019-01-10T03:32:05.482Z,934.95
2019-01-10T03:33:06.770Z,934.95
2019-01-10T03:34:07.051Z,934.95
2019-01-10T03:35:07.457Z,934.97
2019-01-10T03:36:08.141Z,934.96
2019-01-10T03:37:08.557Z,934.99
2019-01-10T03:38:09.247Z,934.95
2019-01-10T03:39:09.940Z,934.95
2019-01-10T03:40:11.364Z,934.96
2019-01-10T03:41:12.609Z,934.97
2019-01-10T03:42:13.867Z,934.93
2019-01-10T03:43:14.567Z,934.94
2019-01-10T03:44:15.339Z,934.96
2019-01-10T03:45:16.013Z,934.96
2019-01-10T03:46:16.708Z,934.94
2019-01-10T03:47:17.402Z,934.96
2019-01-10T03:48:18.090Z,934.89
2019-01-10T03:49:18.329Z,934.93
2019-01-10T03:50:19.577Z,934.93
2019-01-10T03:51:20.710Z,934.9
2019-01-10T03:52:21.403Z,934.96
2019-01-10T03:53:22.382Z,934.95
2019-01-10T03:54:23.070Z,934.9
2019-01-10T03:55:24.073Z,934.88
2019-01-10T03:56:24.863Z,934.89
2019-01-10T03:57:25.552Z,934.9
2019-01-10T03:58:26.519Z,934.91
2019-01-10T03:59:26.744Z,934.94
2019-01-10T04:00:27.444Z,934.96
2019-01-10T04:01:28.090Z,934.95
2019-01-10T04:02:29.349Z,934.94
2019-01-10T04:03:29.595Z,934.97
2019-01-10T04:04:30.571Z,934.98
2019-01-10T04:05:30.971Z,934.98
2019-01-10T04:06:31.212Z,934.99
2019-01-10T04:07:32.184Z,934.94
2019-01-10T04:08:33.427Z,934.97
2019-01-10T04:09:34.117Z,935
2019-01-10T04:10:34.806Z,934.97
2019-01-10T04:11:36.091Z,934.95
2019-01-10T04:12:36.513Z,934.93
2019-01-10T04:13:36.776Z,934.96
2019-01-10T04:14:37.911Z,934.94
2019-01-10T04:15:38.286Z,934.96
2019-01-10T04:16:38.975Z,934.97
2019-01-10T04:17:39.936Z,934.94
2019-01-10T04:18:40.736Z,934.93
2019-01-10T04:19:41.737Z,935
2019-01-10T04:20:42.696Z,934.96
2019-01-10T04:21:43.682Z,934.94
2019-01-10T04:22:44.665Z,934.97
2019-01-10T04:23:45.030Z,934.97
2019-01-10T04:24:45.534Z,934.99
2019-01-10T04:25:45.825Z,934.97
2019-01-10T04:26:46.514Z,934.95
2019-01-10T04:27:47.529Z,934.97
2019-01-10T04:28:48.807Z,934.94
2019-01-10T04:29:49.493Z,934.97
2019-01-10T04:30:50.467Z,934.96
2019-01-10T04:31:51.422Z,935.05
2019-01-10T04:32:52.389Z,935.02
2019-01-10T04:33:52.803Z,935.03
2019-01-10T04:34:53.493Z,935
2019-01-10T04:35:54.867Z,935
2019-01-10T04:36:56.166Z,934.99
2019-01-10T04:37:57.133Z,935.06
2019-01-10T04:38:57.670Z,935.08
2019-01-10T04:39:58.193Z,935.05
2019-01-10T04:40:59.197Z,935.1
2019-01-10T04:41:59.689Z,935.05
2019-01-10T04:43:00.378Z,935.06
2019-01-10T04:44:07.716Z,935.09
2019-01-10T04:44:12.807Z,935.07
2019-01-10T04:45:13.183Z,935.04
2019-01-10T04:46:14.598Z,935.05
2019-01-10T04:47:15.735Z,935.08
2019-01-10T04:48:16.423Z,935.13
2019-01-10T04:49:16.836Z,935.14
2019-01-10T04:50:17.250Z,935.14
2019-01-10T04:51:18.097Z,935.13
2019-01-10T04:52:19.079Z,935.11
2019-01-10T04:53:19.777Z,935.13
2019-01-10T04:54:20.184Z,935.13
2019-01-10T04:55:20.865Z,935.12
2019-01-10T04:56:21.276Z,935.15
2019-01-10T04:57:21.688Z,935.17
2019-01-10T04:58:22.101Z,935.14
2019-01-10T04:59:22.789Z,935.17
2019-01-10T05:00:23.920Z,935.15
2019-01-10T05:01:24.497Z,935.17
2019-01-10T05:02:24.921Z,935.17
2019-01-10T05:03:26.173Z,935.21
2019-01-10T05:04:26.994Z,935.22
2019-01-10T05:05:27.904Z,935.25
2019-01-10T05:06:28.878Z,935.24
2019-01-10T05:07:29.213Z,935.27
2019-01-10T05:08:29.622Z,935.23
2019-01-10T05:09:30.588Z,935.24
2019-01-10T05:10:31.293Z,935.26
2019-01-10T05:11:32.108Z,935.27
2019-01-10T05:12:33.179Z,935.26
2019-01-10T05:13:33.868Z,935.28
2019-01-10T05:14:34.559Z,935.28
2019-01-10T05:15:35.737Z,935.3
2019-01-10T05:16:36.146Z,935.31
2019-01-10T05:17:37.145Z,935.3
2019-01-10T05:18:38.394Z,935.31
2019-01-10T05:19:39.458Z,935.34
2019-01-10T05:20:40.182Z,935.27
2019-01-10T05:21:41.143Z,935.29
2019-01-10T05:22:41.829Z,935.3
2019-01-10T05:23:42.236Z,935.3
2019-01-10T05:24:42.667Z,935.32
2019-01-10T05:25:43.150Z,935.32
2019-01-10T05:26:43.561Z,935.27
2019-01-10T05:27:43.972Z,935.32
2019-01-10T05:28:44.492Z,935.33
2019-01-10T05:29:45.464Z,935.34
2019-01-10T05:30:45.710Z,935.35
2019-01-10T05:31:46.212Z,935.34
2019-01-10T05:32:47.177Z,935.3
2019-01-10T05:33:47.526Z,935.36
2019-01-10T05:34:48.213Z,935.36
2019-01-10T05:35:48.680Z,935.34
2019-01-10T05:36:49.095Z,935.37
2019-01-10T05:37:49.781Z,935.39
2019-01-10T05:38:50.482Z,935.4
2019-01-10T05:39:51.724Z,935.41
2019-01-10T05:40:52.414Z,935.42
2019-01-10T05:41:53.103Z,935.46
2019-01-10T05:42:54.077Z,935.41
2019-01-10T05:43:55.385Z,935.45
2019-01-10T05:44:55.796Z,935.46
2019-01-10T05:45:56.683Z,935.48
2019-01-10T05:46:57.648Z,935.47
2019-01-10T05:47:58.340Z,935.49
2019-01-10T05:48:59.076Z,935.45
2019-01-10T05:49:59.894Z,935.49
2019-01-10T05:51:00.294Z,935.48
2019-01-10T05:52:00.734Z,935.48
2019-01-10T05:53:01.360Z,935.49
2019-01-10T05:54:02.023Z,935.5
2019-01-10T05:55:02.709Z,935.52
2019-01-10T05:56:03.118Z,935.53
2019-01-10T05:57:04.088Z,935.55
2019-01-10T05:58:04.776Z,935.56
2019-01-10T05:59:05.276Z,935.5
2019-01-10T06:00:06.405Z,935.58
2019-01-10T06:01:06.818Z,935.6
2019-01-10T06:02:07.507Z,935.59
2019-01-10T06:03:07.921Z,935.66
2019-01-10T06:04:08.607Z,935.64
2019-01-10T06:05:10.934Z,935.63
2019-01-10T06:06:12.060Z,935.62
2019-01-10T06:07:12.468Z,935.67
2019-01-10T06:08:12.879Z,935.65
2019-01-10T06:09:13.287Z,935.66
2019-01-10T06:10:13.975Z,935.66
2019-01-10T06:11:14.381Z,935.71
2019-01-10T06:12:14.626Z,935.71
2019-01-10T06:13:15.315Z,935.77
2019-01-10T06:14:15.557Z,935.79
2019-01-10T06:15:15.796Z,935.77
2019-01-10T06:16:16.462Z,935.78
2019-01-10T06:17:17.512Z,935.75
2019-01-10T06:18:18.203Z,935.76
2019-01-10T06:19:30.634Z,935.75
2019-01-10T06:20:31.473Z,935.84
2019-01-10T06:21:32.436Z,935.83
2019-01-10T06:22:32.986Z,935.86
2019-01-10T06:23:33.392Z,935.9
2019-01-10T06:24:33.646Z,935.89
2019-01-10T06:25:34.328Z,935.9
2019-01-10T06:26:35.303Z,935.9
2019-01-10T06:27:35.712Z,935.91
2019-01-10T06:28:36.844Z,935.99
2019-01-10T06:29:37.825Z,935.97
2019-01-10T06:30:38.916Z,935.98
2019-01-10T06:31:40.046Z,935.96
2019-01-10T06:32:41.329Z,935.96
2019-01-10T06:33:42.298Z,935.96
2019-01-10T06:34:42.543Z,936.01
2019-01-10T06:35:43.233Z,936
2019-01-10T06:36:43.640Z,936.04
2019-01-10T06:37:44.603Z,936.04
2019-01-10T06:38:45.070Z,936.08
2019-01-10T06:39:45.483Z,936.04
2019-01-10T06:40:46.292Z,936.01
2019-01-10T06:41:47.017Z,936.01
2019-01-10T06:42:47.426Z,936.04
2019-01-10T06:43:48.566Z,936.09
2019-01-10T06:44:49.253Z,936.13
2019-01-10T06:45:49.664Z,936.14
2019-01-10T06:46:49.906Z,936.08
2019-01-10T06:47:50.327Z,936.14
2019-01-10T06:48:51.304Z,936.16
2019-01-10T06:49:52.269Z,936.15
2019-01-10T06:50:52.808Z,936.2
2019-01-10T06:51:53.776Z,936.16
2019-01-10T06:52:54.464Z,936.2
2019-01-10T06:53:55.629Z,936.16
2019-01-10T06:54:57.106Z,936.21
2019-01-10T06:55:57.517Z,936.25
2019-01-10T06:56:57.926Z,936.22
2019-01-10T06:57:58.664Z,936.23
2019-01-10T06:58:59.720Z,936.24
2019-01-10T07:00:00.851Z,936.26
2019-01-10T07:01:01.699Z,936.26
2019-01-10T07:02:02.193Z,936.31
2019-01-10T07:03:02.906Z,936.31
2019-01-10T07:04:03.615Z,936.29
2019-01-10T07:05:04.304Z,936.34
2019-01-10T07:06:04.994Z,936.32
2019-01-10T07:07:05.969Z,936.33
2019-01-10T07:08:07.209Z,936.31
2019-01-10T07:09:07.635Z,936.33
2019-01-10T07:10:08.335Z,936.33
2019-01-10T07:11:09.433Z,936.36
2019-01-10T07:12:10.562Z,936.42
2019-01-10T07:13:11.249Z,936.39
2019-01-10T07:14:11.938Z,936.39
2019-01-10T07:15:12.631Z,936.41
2019-01-10T07:16:13.762Z,936.39
2019-01-10T07:17:16.265Z,936.4
2019-01-10T07:18:16.510Z,936.38
2019-01-10T07:19:17.921Z,936.43
2019-01-10T07:20:19.330Z,936.41
2019-01-10T07:21:20.300Z,936.42
2019-01-10T07:22:20.743Z,936.43
2019-01-10T07:23:21.434Z,936.4
2019-01-10T07:24:21.844Z,936.4
2019-01-10T07:25:22.552Z,936.4
2019-01-10T07:26:23.965Z,936.42
2019-01-10T07:27:24.382Z,936.47
2019-01-10T07:28:25.071Z,936.5
2019-01-10T07:29:25.496Z,936.42
2019-01-10T07:30:39.217Z,936.47
2019-01-10T07:31:39.477Z,936.44
2019-01-10T07:32:39.973Z,936.44
2019-01-10T07:33:40.759Z,936.48
2019-01-10T07:34:41.895Z,936.46
2019-01-10T07:35:42.871Z,936.51
2019-01-10T07:36:44.773Z,936.5
2019-01-10T07:37:44.294Z,936.52
2019-01-10T07:38:44.712Z,936.5
2019-01-10T07:39:45.400Z,936.55
2019-01-10T07:40:45.655Z,936.55
2019-01-10T07:41:46.044Z,936.49
2019-01-10T07:42:46.457Z,936.53
2019-01-10T07:43:47.160Z,936.54
2019-01-10T07:44:48.458Z,936.6
2019-01-10T07:45:49.359Z,936.58
2019-01-10T07:46:50.417Z,936.53
2019-01-10T07:47:51.553Z,936.57
2019-01-10T07:48:52.251Z,936.61
2019-01-10T07:49:52.684Z,936.64
2019-01-10T07:50:53.099Z,936.66
2019-01-10T07:51:54.193Z,936.65
2019-01-10T07:52:54.969Z,936.67
2019-01-10T07:53:55.381Z,936.65
2019-01-10T07:54:55.569Z,936.73
2019-01-10T07:55:56.538Z,936.69
2019-01-10T07:56:57.511Z,936.7
2019-01-10T07:57:57.931Z,936.73
2019-01-10T07:58:59.066Z,936.71
2019-01-10T08:00:00.570Z,936.72
2019-01-10T08:01:01.594Z,936.7
2019-01-10T08:02:01.994Z,936.7
2019-01-10T08:03:02.411Z,936.75
2019-01-10T08:04:03.388Z,936.73
2019-01-10T08:05:03.895Z,936.73
2019-01-10T08:06:05.317Z,936.76
2019-01-10T08:07:06.457Z,936.75
2019-01-10T08:08:07.255Z,936.81
2019-01-10T08:09:07.962Z,936.77
2019-01-10T08:10:09.093Z,936.83
2019-01-10T08:11:10.062Z,936.8
2019-01-10T08:12:11.158Z,936.77
2019-01-10T08:13:12.292Z,936.79
2019-01-10T08:14:13.429Z,936.81
2019-01-10T08:15:14.194Z,936.79
2019-01-10T08:16:15.330Z,936.84
2019-01-10T08:17:16.968Z,936.87
2019-01-10T08:18:17.935Z,936.85
2019-01-10T08:19:18.347Z,936.83
2019-01-10T08:20:19.318Z,936.86
2019-01-10T08:21:20.289Z,936.89
2019-01-10T08:22:28.526Z,936.87
2019-01-10T08:22:33.855Z,936.9
2019-01-10T08:23:34.423Z,936.92
2019-01-10T08:24:35.112Z,936.9
2019-01-10T08:25:37.592Z,936.92
2019-01-10T08:25:48.444Z,936.94
2019-01-10T08:26:01.088Z,936.95
2019-01-10T08:27:01.865Z,936.95
2019-01-10T08:28:02.334Z,936.97
2019-01-10T08:29:02.881Z,937.01
2019-01-10T08:30:03.294Z,937.02
2019-01-10T08:31:04.263Z,936.97
2019-01-10T08:32:05.398Z,937.03
2019-01-10T08:33:06.129Z,936.99
2019-01-10T08:34:07.094Z,936.98
2019-01-10T08:35:07.784Z,937.05
2019-01-10T08:36:08.196Z,937.04
2019-01-10T08:37:09.028Z,937.07
2019-01-10T08:38:10.105Z,937.09
2019-01-10T08:39:10.811Z,937.05
2019-01-10T08:40:11.502Z,937.08
2019-01-10T08:41:14.184Z,937.09
2019-01-10T08:42:14.431Z,937.04
2019-01-10T08:43:14.843Z,937.1
2019-01-10T08:44:15.557Z,937.12
2019-01-10T08:45:22.369Z,937.09
2019-01-10T08:45:28.580Z,937.03
2019-01-10T08:46:28.936Z,937.1
2019-01-10T08:47:30.917Z,937.08
2019-01-10T08:48:30.544Z,937.08
2019-01-10T08:49:31.233Z,937.12
2019-01-10T08:50:31.927Z,937.16
2019-01-10T08:51:33.063Z,937.11
2019-01-10T08:52:34.884Z,937.13
2019-01-10T08:53:36.102Z,937.1
2019-01-10T08:54:37.101Z,937.15
2019-01-10T08:55:38.240Z,937.15
2019-01-10T08:56:39.196Z,937.17
2019-01-10T08:57:39.889Z,937.13
2019-01-10T08:58:40.854Z,937.12
2019-01-10T08:59:41.827Z,937.17
2019-01-10T09:00:42.081Z,937.23
2019-01-10T09:01:42.767Z,937.2
2019-01-10T09:02:43.027Z,937.23
2019-01-10T09:03:43.273Z,937.21
2019-01-10T09:04:44.240Z,937.17
2019-01-10T09:05:44.934Z,937.25
2019-01-10T09:06:46.030Z,937.22
2019-01-10T09:07:46.726Z,937.27
2019-01-10T09:08:47.696Z,937.28
2019-01-10T09:09:48.121Z,937.3
2019-01-10T09:10:48.804Z,937.26
2019-01-10T09:11:49.945Z,937.3
2019-01-10T09:12:50.728Z,937.29
2019-01-10T09:13:51.141Z,937.3
2019-01-10T09:14:52.559Z,937.32
2019-01-10T09:15:53.315Z,937.34
2019-01-10T09:16:54.132Z,937.36
2019-01-10T09:17:55.107Z,937.31
2019-01-10T09:18:55.803Z,937.35
2019-01-10T09:19:56.500Z,937.34
2019-01-10T09:21:04.842Z,937.39
2019-01-10T09:21:09.664Z,937.38
2019-01-10T09:22:10.805Z,937.35
2019-01-10T09:23:11.322Z,937.37
2019-01-10T09:24:11.741Z,937.39
2019-01-10T09:25:12.432Z,937.34
2019-01-10T09:26:13.680Z,937.36
2019-01-10T09:27:14.371Z,937.42
2019-01-10T09:28:15.507Z,937.42
2019-01-10T09:29:16.644Z,937.42
2019-01-10T09:30:17.058Z,937.39
2019-01-10T09:31:18.027Z,937.44
2019-01-10T09:32:18.687Z,937.46
2019-01-10T09:33:19.378Z,937.43
2019-01-10T09:34:25.344Z,937.47
2019-01-10T09:34:32.433Z,937.45
2019-01-10T09:35:33.250Z,937.45
2019-01-10T09:36:33.670Z,937.46
2019-01-10T09:37:34.639Z,937.45
2019-01-10T09:38:35.092Z,937.49
2019-01-10T09:39:36.064Z,937.51
2019-01-10T09:40:36.752Z,937.46
2019-01-10T09:41:37.718Z,937.53
2019-01-10T09:42:38.853Z,937.5
2019-01-10T09:43:39.434Z,937.54
2019-01-10T09:44:39.959Z,937.51
2019-01-10T09:45:43.842Z,937.5
2019-01-10T09:46:44.301Z,937.51
2019-01-10T09:47:44.992Z,937.56
2019-01-10T09:48:45.686Z,937.54
2019-01-10T09:49:46.096Z,937.56
2019-01-10T09:50:47.234Z,937.6
2019-01-10T09:51:47.925Z,937.6
2019-01-10T09:52:48.897Z,937.57
2019-01-10T09:53:49.419Z,937.58
2019-01-10T09:54:49.837Z,937.63
2019-01-10T09:55:50.659Z,937.62
2019-01-10T09:56:51.109Z,937.64
2019-01-10T09:57:52.252Z,937.64
2019-01-10T09:58:52.782Z,937.65
2019-01-10T09:59:53.921Z,937.69
2019-01-10T10:00:54.689Z,937.68
2019-01-10T10:01:55.669Z,937.67
2019-01-10T10:02:56.492Z,937.65
2019-01-10T10:03:57.183Z,937.68
2019-01-10T10:04:58.159Z,937.7
2019-01-10T10:06:10.481Z,937.7
2019-01-10T10:07:11.343Z,937.68
2019-01-10T10:08:12.611Z,937.64
2019-01-10T10:09:13.407Z,937.64
2019-01-10T10:10:14.137Z,937.63
2019-01-10T10:11:15.404Z,937.67
2019-01-10T10:12:16.096Z,937.64
2019-01-10T10:13:16.787Z,937.72
2019-01-10T10:14:17.924Z,937.68
2019-01-10T10:15:18.892Z,937.72
2019-01-10T10:16:19.602Z,937.68
2019-01-10T10:17:20.339Z,937.64
2019-01-10T10:18:21.122Z,937.67
2019-01-10T10:19:21.814Z,937.71
2019-01-10T10:20:22.951Z,937.68
2019-01-10T10:21:23.474Z,937.69
2019-01-10T10:22:24.616Z,937.74
2019-01-10T10:23:27.386Z,937.73
2019-01-10T10:24:27.803Z,937.72
2019-01-10T10:25:28.269Z,937.78
2019-01-10T10:26:29.237Z,937.74
2019-01-10T10:27:30.061Z,937.76
2019-01-10T10:28:30.477Z,937.74
2019-01-10T10:29:31.450Z,937.74
2019-01-10T10:30:32.152Z,937.76
2019-01-10T10:31:32.837Z,937.76
2019-01-10T10:32:33.809Z,937.72
2019-01-10T10:33:34.942Z,937.73
2019-01-10T10:34:35.923Z,937.71
2019-01-10T10:35:37.375Z,937.72
2019-01-10T10:36:37.791Z,937.73
2019-01-10T10:37:38.335Z,937.75
2019-01-10T10:38:39.033Z,937.74
2019-01-10T10:39:39.455Z,937.74
2019-01-10T10:40:40.596Z,937.75
2019-01-10T10:41:41.016Z,937.78
2019-01-10T10:42:41.431Z,937.76
2019-01-10T10:43:42.412Z,937.76
2019-01-10T10:44:42.840Z,937.77
2019-01-10T10:45:43.253Z,937.79
2019-01-10T10:46:43.666Z,937.77
2019-01-10T10:47:44.312Z,937.8
2019-01-10T10:48:44.735Z,937.77
2019-01-10T10:49:44.986Z,937.8
2019-01-10T10:50:46.118Z,937.77
2019-01-10T10:51:46.536Z,937.77
2019-01-10T10:52:47.668Z,937.81
2019-01-10T10:53:48.197Z,937.8
2019-01-10T10:54:48.797Z,937.8
2019-01-10T10:55:49.550Z,937.77
2019-01-10T10:56:50.711Z,937.81
2019-01-10T10:57:50.993Z,937.81
2019-01-10T10:58:52.128Z,937.79
2019-01-10T10:59:52.825Z,937.8
2019-01-10T11:00:53.796Z,937.8
2019-01-10T11:01:54.489Z,937.8
2019-01-10T11:02:55.184Z,937.81
2019-01-10T11:03:55.712Z,937.81
2019-01-10T11:04:57.126Z,937.78
2019-01-10T11:05:57.820Z,937.76
2019-01-10T11:06:58.790Z,937.79
2019-01-10T11:08:00.166Z,937.8
2019-01-10T11:09:11.710Z,937.78
2019-01-10T11:10:12.265Z,937.77
2019-01-10T11:11:12.674Z,937.76
2019-01-10T11:12:13.393Z,937.78
2019-01-10T11:13:14.085Z,937.71
2019-01-10T11:14:14.777Z,937.8
2019-01-10T11:15:15.916Z,937.78
2019-01-10T11:16:16.400Z,937.71
2019-01-10T11:17:17.055Z,937.75
2019-01-10T11:18:18.117Z,937.76
2019-01-10T11:19:19.247Z,937.78
2019-01-10T11:20:19.553Z,937.76
2019-01-10T11:21:21.025Z,937.75
2019-01-10T11:22:22.000Z,937.81
2019-01-10T11:23:22.653Z,937.78
2019-01-10T11:24:23.448Z,937.74
2019-01-10T11:25:24.159Z,937.79
2019-01-10T11:26:25.470Z,937.75
2019-01-10T11:27:26.107Z,937.75
2019-01-10T11:28:26.669Z,937.74
2019-01-10T11:29:27.537Z,937.75
2019-01-10T11:30:28.565Z,937.73
2019-01-10T11:31:29.256Z,937.75
2019-01-10T11:32:30.095Z,937.74
2019-01-10T11:33:30.921Z,937.73
2019-01-10T11:34:32.168Z,937.73
2019-01-10T11:35:32.594Z,937.75
2019-01-10T11:36:33.565Z,937.75
2019-01-10T11:37:34.540Z,937.7
2019-01-10T11:38:35.327Z,937.7
2019-01-10T11:39:35.738Z,937.71
2019-01-10T11:40:36.281Z,937.75
2019-01-10T11:41:36.701Z,937.73
2019-01-10T11:42:37.414Z,937.69
2019-01-10T11:43:38.113Z,937.73
2019-01-10T11:44:38.528Z,937.74
2019-01-10T11:45:39.944Z,937.72
2019-01-10T11:46:40.948Z,937.7
2019-01-10T11:47:41.919Z,937.68
2019-01-10T11:48:42.337Z,937.69
2019-01-10T11:49:43.069Z,937.69
2019-01-10T11:50:43.829Z,937.76
2019-01-10T11:51:44.961Z,937.67
2019-01-10T11:52:45.500Z,937.71
2019-01-10T11:53:46.022Z,937.68
2019-01-10T11:54:46.713Z,937.65
2019-01-10T11:55:47.800Z,937.67
2019-01-10T11:56:48.949Z,937.67
2019-01-10T11:57:49.355Z,937.67
2019-01-10T11:58:49.868Z,937.66
2019-01-10T11:59:50.297Z,937.66
2019-01-10T12:00:51.222Z,937.7
2019-01-10T12:01:53.432Z,937.67
2019-01-10T12:02:04.407Z,937.63
2019-01-10T12:03:06.455Z,937.66
2019-01-10T12:03:17.325Z,937.61
2019-01-10T12:04:17.375Z,937.65
2019-01-10T12:05:18.428Z,937.69
2019-01-10T12:06:18.851Z,937.67
2019-01-10T12:07:19.545Z,937.62
2019-01-10T12:08:20.237Z,937.6
2019-01-10T12:09:20.654Z,937.61
2019-01-10T12:10:21.350Z,937.59
2019-01-10T12:11:22.604Z,937.63
2019-01-10T12:12:22.848Z,937.62
2019-01-10T12:13:24.764Z,937.63
2019-01-10T12:13:35.290Z,937.61
2019-01-10T12:14:36.225Z,937.6
2019-01-10T12:15:36.471Z,937.65
2019-01-10T12:16:37.351Z,937.59
2019-01-10T12:17:38.041Z,937.55
2019-01-10T12:18:39.273Z,937.55
2019-01-10T12:19:40.311Z,937.59
2019-01-10T12:20:40.734Z,937.64
2019-01-10T12:21:41.632Z,937.61
2019-01-10T12:22:42.515Z,937.62
2019-01-10T12:23:42.940Z,937.62
2019-01-10T12:24:43.511Z,937.61
2019-01-10T12:25:44.126Z,937.63
2019-01-10T12:26:44.677Z,937.6
2019-01-10T12:27:45.374Z,937.64
2019-01-10T12:28:45.787Z,937.65
2019-01-10T12:29:46.923Z,937.66
2019-01-10T12:30:47.341Z,937.63
2019-01-10T12:31:48.036Z,937.63
2019-01-10T12:32:48.450Z,937.63